Time;durP1;ratioP1;P1;durP2;ratioP2;P2;SDS_P1;SDS_P2;PMS_P1;PMS_P2;Temp;Humidity;BMP_temperature;BMP_pressure;BME280_temperature;BME280_humidity;BME280_pressure;Samples;Min_cycle;Max_cycle;Signal;HPM_P1;HPM_P2
2021/03/02 00:00:07;;;;;;;;;;;;;;;20.72;51.54;103087.78;2088779;28;1690;-76
2021/03/02 00:01:08;;;;;;;;;;;;;;;20.72;51.70;103082.94;2090793;28;1209;-77
2021/03/02 00:02:09;;;;;;;;;;;;;;;20.73;51.61;103083.78;2090874;28;1078;-76
2021/03/02 00:03:10;;;;;;;;;;;;;;;20.72;51.65;103082.94;2087280;28;1983;-76
2021/03/02 00:04:11;;;;;;;;;;;;;;;20.72;51.63;103085.78;2090362;28;2079;-77
2021/03/02 00:05:12;;;;;;;;;;;;;;;20.72;51.47;103080.09;2090011;28;1789;-76
2021/03/02 00:06:13;;;;;;;;;;;;;;;20.71;51.43;103089.78;2090290;28;1675;-76
2021/03/02 00:07:14;;;;;;;;;;;;;;;20.73;51.48;103083.78;2089340;28;1782;-76
2021/03/02 00:08:15;;;;;;;;;;;;;;;20.72;51.65;103085.78;2089518;28;1117;-75
2021/03/02 00:09:16;;;;;;;;;;;;;;;20.72;51.48;103082.94;2085336;28;1106;-75
2021/03/02 00:10:17;;;;;;;;;;;;;;;20.73;51.51;103078.09;2089380;28;2141;-75
2021/03/02 00:11:18;;;;;;;;;;;;;;;20.72;51.41;103077.25;2091158;28;1114;-75
2021/03/02 00:12:19;;;;;;;;;;;;;;;20.72;51.60;103074.41;2087633;28;1314;-75
2021/03/02 00:13:20;;;;;;;;;;;;;;;20.73;51.48;103080.94;2087738;28;1124;-75
2021/03/02 00:14:21;;;;;;;;;;;;;;;20.72;51.42;103074.41;2088325;28;1247;-73
2021/03/02 00:15:22;;;;;;;;;;;;;;;20.73;51.43;103083.78;2088298;28;1692;-75
2021/03/02 00:16:23;;;;;;;;;;;;;;;20.72;51.55;103082.09;2087386;28;1826;-75
2021/03/02 00:17:24;;;;;;;;;;;;;;;20.72;51.41;103082.09;2087990;28;1031;-76
2021/03/02 00:18:25;;;;;;;;;;;;;;;20.72;51.54;103082.09;2084587;28;1251;-75
2021/03/02 00:19:25;;;;;;;;;;;;;;;20.73;51.39;103086.63;2087801;28;1125;-75
2021/03/02 00:20:26;;;;;;;;;;;;;;;20.74;51.51;103088.34;2089400;28;1659;-74
2021/03/02 00:21:27;;;;;;;;;;;;;;;20.72;51.47;103085.78;2088033;28;1136;-73
2021/03/02 00:22:28;;;;;;;;;;;;;;;20.73;51.38;103089.47;2087542;28;1197;-73
2021/03/02 00:23:28;;;;;;;;;;;;;;;20.72;51.35;103084.94;2085524;28;1974;-73
2021/03/02 00:24:29;;;;;;;;;;;;;;;20.72;51.37;103082.09;2088232;28;1624;-75
2021/03/02 00:25:30;;;;;;;;;;;;;;;20.72;51.34;103087.78;2089619;28;1694;-74
2021/03/02 00:26:31;;;;;;;;;;;;;;;20.72;51.38;103080.09;2087679;28;1736;-74
2021/03/02 00:27:32;;;;;;;;;;;;;;;20.71;51.51;103075.56;2087698;28;1774;-74
2021/03/02 00:28:32;;;;;;;;;;;;;;;20.72;51.34;103076.41;2087401;28;1068;-73
2021/03/02 00:29:33;;;;;;;;;;;;;;;20.72;51.29;103080.09;2087698;28;1700;-73
2021/03/02 00:30:34;;;;;;;;;;;;;;;20.72;51.34;103079.25;2085248;28;2631;-74
2021/03/02 00:31:35;;;;;;;;;;;;;;;20.72;51.33;103085.78;2089646;28;1024;-73
2021/03/02 00:32:36;;;;;;;;;;;;;;;20.72;51.31;103088.63;2087837;28;1774;-73
2021/03/02 00:33:37;;;;;;;;;;;;;;;20.72;51.27;103082.94;2084368;28;1686;-73
2021/03/02 00:34:38;;;;;;;;;;;;;;;20.72;51.31;103088.63;2089390;28;1755;-73
2021/03/02 00:35:39;;;;;;;;;;;;;;;20.72;51.44;103082.94;2088622;28;1688;-74
2021/03/02 00:36:40;;;;;;;;;;;;;;;20.72;51.29;103088.63;2089621;28;1925;-73
2021/03/02 00:37:41;;;;;;;;;;;;;;;20.72;51.42;103082.94;2086250;28;1740;-74
2021/03/02 00:38:41;;;;;;;;;;;;;;;20.73;51.33;103086.63;2083987;28;1707;-74
2021/03/02 00:39:42;;;;;;;;;;;;;;;20.73;51.44;103096.03;2089702;28;1845;-73
2021/03/02 00:40:43;;;;;;;;;;;;;;;20.72;51.42;103091.47;2086639;28;1185;-73
2021/03/02 00:41:45;;;;;;;;;;;;;;;20.73;51.34;103089.47;2089960;28;1700;-73
2021/03/02 00:42:46;;;;;;;;;;;;;;;20.73;51.45;103092.31;2089064;28;1981;-74
2021/03/02 00:43:46;;;;;;;;;;;;;;;20.73;51.23;103096.03;2086611;28;1743;-73
2021/03/02 00:44:47;;;;;;;;;;;;;;;20.74;51.31;103094.03;2086859;28;1756;-73
2021/03/02 00:45:48;;;;;;;;;;;;;;;20.73;51.33;103104.59;2089865;28;1568;-74
2021/03/02 00:46:49;;;;;;;;;;;;;;;20.73;51.37;103086.63;2089269;28;1763;-73
2021/03/02 00:47:50;;;;;;;;;;;;;;;20.74;51.38;103099.72;2090455;28;1057;-74
2021/03/02 00:48:51;;;;;;;;;;;;;;;20.72;51.24;103094.31;2088515;28;1714;-74
2021/03/02 00:49:52;;;;;;;;;;;;;;;20.74;51.28;103091.19;2087851;28;1735;-73
2021/03/02 00:50:53;;;;;;;;;;;;;;;20.73;51.42;103096.03;2089753;28;1617;-73
2021/03/02 00:51:54;;;;;;;;;;;;;;;20.73;51.31;103098.00;2089173;28;1290;-74
2021/03/02 00:52:55;;;;;;;;;;;;;;;20.73;51.26;103096.03;2089480;28;2062;-74
2021/03/02 00:53:56;;;;;;;;;;;;;;;20.74;51.46;103099.72;2088385;28;2053;-74
2021/03/02 00:54:56;;;;;;;;;;;;;;;20.74;51.32;103102.56;2085125;28;1724;-74
2021/03/02 00:55:57;;;;;;;;;;;;;;;20.73;51.48;103115.97;2087908;28;1816;-74
2021/03/02 00:56:58;;;;;;;;;;;;;;;20.74;51.34;103108.28;2088717;28;1727;-74
2021/03/02 00:57:59;;;;;;;;;;;;;;;20.73;51.33;103113.13;2088963;28;1775;-74
2021/03/02 00:58:59;;;;;;;;;;;;;;;20.74;51.42;103109.13;2086732;28;1165;-74
2021/03/02 01:00:00;;;;;;;;;;;;;;;20.74;51.30;103103.41;2087827;28;1822;-74
2021/03/02 01:01:01;;;;;;;;;;;;;;;20.75;51.47;103105.09;2088886;28;1788;-73
2021/03/02 01:02:02;;;;;;;;;;;;;;;20.72;51.32;103096.31;2087421;28;1301;-76
2021/03/02 01:03:03;;;;;;;;;;;;;;;20.74;51.21;103102.56;2088667;28;2203;-74
2021/03/02 01:04:04;;;;;;;;;;;;;;;20.73;51.29;103101.75;2089360;28;1191;-75
2021/03/02 01:05:05;;;;;;;;;;;;;;;20.74;51.36;103106.28;2088372;28;1922;-76
2021/03/02 01:06:06;;;;;;;;;;;;;;;20.73;51.40;103086.63;2086984;28;1666;-76
2021/03/02 01:07:07;;;;;;;;;;;;;;;20.75;51.33;103095.72;2089490;28;2154;-76
2021/03/02 01:08:07;;;;;;;;;;;;;;;20.75;51.34;103092.88;2086004;28;1737;-76
2021/03/02 01:09:09;;;;;;;;;;;;;;;20.75;51.50;103095.72;2089058;28;1079;-76
2021/03/02 01:10:09;;;;;;;;;;;;;;;20.75;51.35;103092.88;2086811;28;2337;-76
2021/03/02 01:11:10;;;;;;;;;;;;;;;20.75;51.42;103095.72;2089704;28;1694;-76
2021/03/02 01:12:11;;;;;;;;;;;;;;;20.74;51.34;103089.19;2089973;28;1759;-75
2021/03/02 01:13:12;;;;;;;;;;;;;;;20.74;51.31;103085.50;2088328;28;1739;-76
2021/03/02 01:14:13;;;;;;;;;;;;;;;20.74;51.45;103085.50;2090108;28;1290;-76
2021/03/02 01:15:14;;;;;;;;;;;;;;;20.74;51.44;103089.19;2086471;28;1746;-76
2021/03/02 01:16:15;;;;;;;;;;;;;;;20.74;51.51;103083.50;2089005;28;1687;-75
2021/03/02 01:17:16;;;;;;;;;;;;;;;20.74;51.39;103089.19;2089697;28;2066;-76
2021/03/02 01:18:17;;;;;;;;;;;;;;;20.74;51.58;103082.66;2089342;28;1277;-76
2021/03/02 01:19:18;;;;;;;;;;;;;;;20.75;51.49;103079.50;2089910;28;2085;-76
2021/03/02 01:20:18;;;;;;;;;;;;;;;20.74;51.38;103080.66;2090038;28;1548;-76
2021/03/02 01:21:19;;;;;;;;;;;;;;;20.74;51.34;103086.34;2088016;28;1747;-76
2021/03/02 01:22:21;;;;;;;;;;;;;;;20.75;51.44;103081.50;2082194;28;1375;-77
2021/03/02 01:23:22;;;;;;;;;;;;;;;20.75;51.55;103081.50;2086449;28;1913;-76
2021/03/02 01:24:23;;;;;;;;;;;;;;;20.74;51.41;103077.81;2090226;28;1051;-75
2021/03/02 01:25:23;;;;;;;;;;;;;;;20.74;51.39;103080.66;2088768;28;1730;-74
2021/03/02 01:26:24;;;;;;;;;;;;;;;20.74;51.38;103074.97;2089758;28;1641;-75
2021/03/02 01:27:25;;;;;;;;;;;;;;;20.74;51.52;103074.13;2089380;28;1555;-75
2021/03/02 01:28:26;;;;;;;;;;;;;;;20.73;51.54;103070.44;2089222;28;1209;-75
2021/03/02 01:29:26;;;;;;;;;;;;;;;20.75;51.46;103075.81;2089468;28;1688;-75
2021/03/02 01:30:27;;;;;;;;;;;;;;;20.74;51.41;103069.28;2088092;28;2622;-75
2021/03/02 01:31:28;;;;;;;;;;;;;;;20.75;51.40;103078.66;2088730;28;1712;-74
2021/03/02 01:32:29;;;;;;;;;;;;;;;20.74;51.33;103069.28;2088730;28;1220;-74
2021/03/02 01:33:30;;;;;;;;;;;;;;;20.74;51.38;103066.44;2086581;28;1804;-75
2021/03/02 01:34:32;;;;;;;;;;;;;;;20.73;51.26;103067.59;2084529;28;1062;-75
2021/03/02 01:35:33;;;;;;;;;;;;;;;20.74;51.63;103071.28;2089208;28;1720;-74
2021/03/02 01:36:34;;;;;;;;;;;;;;;20.74;51.38;103071.28;2089135;28;1661;-75
2021/03/02 01:37:34;;;;;;;;;;;;;;;20.73;51.36;103070.44;2087269;28;1822;-75
2021/03/02 01:38:36;;;;;;;;;;;;;;;20.73;51.55;103076.13;2089258;28;1705;-75
2021/03/02 01:39:36;;;;;;;;;;;;;;;20.74;51.58;103071.28;2085241;28;1310;-75
2021/03/02 01:40:37;;;;;;;;;;;;;;;20.73;51.40;103073.28;2088141;28;1072;-75
2021/03/02 01:41:39;;;;;;;;;;;;;;;20.73;51.54;103073.28;2088837;28;1687;-75
2021/03/02 01:42:40;;;;;;;;;;;;;;;20.74;51.49;103074.13;2087584;28;1802;-74
2021/03/02 01:43:40;;;;;;;;;;;;;;;20.75;51.41;103076.66;2089583;28;1995;-75
2021/03/02 01:44:41;;;;;;;;;;;;;;;20.74;51.61;103072.13;2087939;28;1715;-75
2021/03/02 01:45:42;;;;;;;;;;;;;;;20.73;51.47;103063.88;2085629;28;1830;-75
2021/03/02 01:46:47;;;;;;;;;;;;;;;20.74;51.56;103066.44;2087922;28;1806;-75
2021/03/02 01:47:48;;;;;;;;;;;;;;;20.74;51.40;103062.75;2088081;28;1771;-75
2021/03/02 01:48:49;;;;;;;;;;;;;;;20.74;51.53;103057.91;2081048;28;1319;-75
2021/03/02 01:49:50;;;;;;;;;;;;;;;20.74;51.57;103060.75;2080464;28;1103;-75
2021/03/02 01:50:50;;;;;;;;;;;;;;;20.74;51.44;103057.06;2089897;28;1488;-75
2021/03/02 01:51:51;;;;;;;;;;;;;;;20.75;51.43;103062.44;2089662;28;1691;-74
2021/03/02 01:52:52;;;;;;;;;;;;;;;20.75;51.57;103065.28;2083656;28;1043;-74
2021/03/02 01:53:53;;;;;;;;;;;;;;;20.75;51.57;103061.59;2090111;28;1017;-75
2021/03/02 01:54:54;;;;;;;;;;;;;;;20.75;51.38;103064.44;2086225;28;1092;-74
2021/03/02 01:55:54;;;;;;;;;;;;;;;20.74;51.32;103063.59;2086396;28;1664;-74
2021/03/02 01:56:55;;;;;;;;;;;;;;;20.75;51.43;103065.28;2088669;28;1775;-73
2021/03/02 01:57:56;;;;;;;;;;;;;;;20.76;51.42;103069.84;2088611;28;1792;-74
2021/03/02 01:58:57;;;;;;;;;;;;;;;20.76;51.44;103071.81;2085677;28;1051;-73
2021/03/02 01:59:58;;;;;;;;;;;;;;;20.76;51.59;103067.00;2089792;28;1037;-74
2021/03/02 02:00:58;;;;;;;;;;;;;;;20.76;51.41;103069.84;2089555;28;1707;-74
2021/03/02 02:02:00;;;;;;;;;;;;;;;20.77;51.34;103074.38;2089426;28;1813;-73
2021/03/02 02:03:01;;;;;;;;;;;;;;;20.77;51.44;103070.69;2090086;28;1987;-74
2021/03/02 02:04:02;;;;;;;;;;;;;;;20.76;51.59;103067.00;2080852;28;1374;-74
2021/03/02 02:05:03;;;;;;;;;;;;;;;20.76;51.58;103061.31;2074612;28;1750;-74
2021/03/02 02:06:04;;;;;;;;;;;;;;;20.77;51.62;103068.69;2079998;28;1669;-73
2021/03/02 02:07:04;;;;;;;;;;;;;;;20.77;51.56;103063.00;2075325;28;1798;-74
2021/03/02 02:08:05;;;;;;;;;;;;;;;20.77;51.50;103067.84;2087970;28;1752;-74
2021/03/02 02:09:08;;;;;;;;;;;;;;;20.77;51.64;103067.84;2089063;28;1108;-74
2021/03/02 02:10:09;;;;;;;;;;;;;;;20.77;51.67;103060.16;2089913;28;2012;-74
2021/03/02 02:11:10;;;;;;;;;;;;;;;20.77;51.49;103065.84;2090422;28;1122;-74
2021/03/02 02:12:31;;;;;;;;;;;;;;;20.77;51.51;103065.00;2087663;28;1727;-74
2021/03/02 02:13:31;;;;;;;;;;;;;;;20.78;51.71;103066.69;2091187;28;1617;-74
2021/03/02 02:14:32;;;;;;;;;;;;;;;20.78;51.67;103063.84;2083624;28;1631;-74
2021/03/02 02:15:33;;;;;;;;;;;;;;;20.77;51.74;103065.84;2086958;28;1077;-74
2021/03/02 02:16:34;;;;;;;;;;;;;;;20.78;51.62;103066.69;2090402;28;1718;-74
2021/03/02 02:17:35;;;;;;;;;;;;;;;20.78;51.79;103070.38;2090597;28;1974;-75
2021/03/02 02:18:36;;;;;;;;;;;;;;;20.78;51.74;103064.69;2089808;28;1557;-74
2021/03/02 02:19:37;;;;;;;;;;;;;;;20.78;51.68;103063.84;2085884;28;1642;-74
2021/03/02 02:20:38;;;;;;;;;;;;;;;20.77;51.71;103062.16;2091132;28;1704;-74
2021/03/02 02:21:40;;;;;;;;;;;;;;;20.78;51.60;103070.38;2088361;28;1686;-74
2021/03/02 02:22:40;;;;;;;;;;;;;;;20.78;51.63;103069.53;2086685;28;1688;-74
2021/03/02 02:23:41;;;;;;;;;;;;;;;20.78;51.59;103064.69;2090978;28;1914;-74
2021/03/02 02:24:42;;;;;;;;;;;;;;;20.77;51.71;103065.84;2088853;28;1554;-74
2021/03/02 02:25:43;;;;;;;;;;;;;;;20.77;51.64;103063.00;2085525;28;1599;-74
2021/03/02 02:26:43;;;;;;;;;;;;;;;20.77;51.68;103056.47;2088751;28;1687;-74
2021/03/02 02:27:44;;;;;;;;;;;;;;;20.78;51.78;103055.31;2089071;28;1703;-74
2021/03/02 02:28:45;;;;;;;;;;;;;;;20.77;51.58;103065.00;2087594;28;1603;-75
2021/03/02 02:29:46;;;;;;;;;;;;;;;20.77;51.76;103062.16;2088760;28;2216;-75
2021/03/02 02:30:47;;;;;;;;;;;;;;;20.79;51.92;103066.41;2086725;28;1550;-77
2021/03/02 02:31:47;;;;;;;;;;;;;;;20.80;52.01;103058.72;2089725;28;1397;-76
2021/03/02 02:32:49;;;;;;;;;;;;;;;20.79;51.87;103065.56;2089875;28;1468;-75
2021/03/02 02:33:50;;;;;;;;;;;;;;;20.79;51.88;103055.03;2089059;28;1647;-73
2021/03/02 02:34:51;;;;;;;;;;;;;;;20.79;51.92;103052.19;2090242;28;1069;-74
2021/03/02 02:35:52;;;;;;;;;;;;;;;20.79;51.90;103063.56;2090484;28;1724;-74
2021/03/02 02:36:53;;;;;;;;;;;;;;;20.80;52.03;103061.56;2090291;28;2093;-74
2021/03/02 02:37:53;;;;;;;;;;;;;;;20.79;52.14;103060.72;2087524;28;1701;-74
2021/03/02 02:38:54;;;;;;;;;;;;;;;20.79;51.87;103057.03;2090104;28;1768;-73
2021/03/02 02:39:55;;;;;;;;;;;;;;;20.80;52.14;103053.88;2090956;28;1080;-73
2021/03/02 02:40:55;;;;;;;;;;;;;;;20.79;51.96;103054.19;2091341;28;1180;-74
2021/03/02 02:41:56;;;;;;;;;;;;;;;20.80;52.04;103051.03;2090850;28;1675;-73
2021/03/02 02:42:57;;;;;;;;;;;;;;;20.79;52.13;103057.88;2090556;28;1448;-74
2021/03/02 02:43:58;;;;;;;;;;;;;;;20.79;52.20;103057.03;2090151;28;1918;-73
2021/03/02 02:44:58;;;;;;;;;;;;;;;20.80;52.19;103059.56;2091261;28;1121;-73
2021/03/02 02:45:59;;;;;;;;;;;;;;;20.80;52.29;103055.88;2088372;28;1637;-74
2021/03/02 02:47:00;;;;;;;;;;;;;;;20.79;52.20;103057.88;2086869;28;1571;-74
2021/03/02 02:48:01;;;;;;;;;;;;;;;20.80;52.29;103055.88;2086138;28;1715;-74
2021/03/02 02:49:02;;;;;;;;;;;;;;;20.79;52.24;103066.41;2089175;28;1696;-73
2021/03/02 02:50:03;;;;;;;;;;;;;;;20.80;52.31;103059.56;2089315;28;1037;-74
2021/03/02 02:51:03;;;;;;;;;;;;;;;20.80;52.19;103065.25;2089438;28;1647;-74
2021/03/02 02:52:04;;;;;;;;;;;;;;;20.79;52.22;103051.34;2086671;28;1064;-73
2021/03/02 02:53:05;;;;;;;;;;;;;;;20.79;52.30;103048.50;2086576;28;1704;-73
2021/03/02 02:54:06;;;;;;;;;;;;;;;20.79;52.15;103049.34;2090284;28;1849;-74
2021/03/02 02:55:06;;;;;;;;;;;;;;;20.79;52.27;103055.03;2087895;28;1294;-74
2021/03/02 02:56:07;;;;;;;;;;;;;;;20.79;52.21;103055.03;2089291;28;1633;-75
2021/03/02 02:57:08;;;;;;;;;;;;;;;20.78;52.13;103050.47;2088565;28;1718;-75
2021/03/02 02:58:09;;;;;;;;;;;;;;;20.79;52.16;103057.03;2090304;28;1641;-74
2021/03/02 02:59:10;;;;;;;;;;;;;;;20.80;52.32;103056.72;2091062;28;1083;-74
2021/03/02 03:00:11;;;;;;;;;;;;;;;20.80;52.28;103055.88;2090870;28;1635;-75
2021/03/02 03:01:19;;;;;;;;;;;;;;;20.80;52.15;103055.88;2084946;28;989;-74
2021/03/02 03:02:20;;;;;;;;;;;;;;;20.80;52.28;103056.72;2090333;28;1640;-75
2021/03/02 03:03:21;;;;;;;;;;;;;;;20.80;52.24;103059.56;2089840;28;2157;-75
2021/03/02 03:04:22;;;;;;;;;;;;;;;20.81;52.29;103058.41;2090521;28;1692;-74
2021/03/02 03:05:23;;;;;;;;;;;;;;;20.81;52.32;103054.72;2085719;28;1624;-74
2021/03/02 03:06:23;;;;;;;;;;;;;;;20.81;52.21;103055.56;2084542;28;1921;-74
2021/03/02 03:07:24;;;;;;;;;;;;;;;20.80;52.36;103059.56;2088830;28;1262;-74
2021/03/02 03:08:25;;;;;;;;;;;;;;;20.81;52.23;103064.09;2090194;28;1773;-75
2021/03/02 03:09:26;;;;;;;;;;;;;;;20.81;52.12;103060.41;2090002;28;1804;-75
2021/03/02 03:10:26;;;;;;;;;;;;;;;20.80;52.15;103061.56;2087318;28;2322;-74
2021/03/02 03:11:27;;;;;;;;;;;;;;;20.80;52.27;103053.88;2086657;28;1838;-75
2021/03/02 03:12:28;;;;;;;;;;;;;;;20.80;52.13;103053.88;2088120;28;1739;-74
2021/03/02 03:13:28;;;;;;;;;;;;;;;20.81;52.21;103051.84;2084684;28;1594;-74
2021/03/02 03:14:29;;;;;;;;;;;;;;;20.82;52.05;103056.44;2089094;28;1589;-73
2021/03/02 03:15:30;;;;;;;;;;;;;;;20.81;51.96;103055.56;2087785;28;1520;-74
2021/03/02 03:16:31;;;;;;;;;;;;;;;20.80;52.05;103056.72;2090535;28;1514;-74
2021/03/02 03:17:32;;;;;;;;;;;;;;;20.81;52.12;103058.41;2089162;28;1680;-74
2021/03/02 03:18:33;;;;;;;;;;;;;;;20.80;52.12;103056.72;2086537;28;1688;-74
2021/03/02 03:19:33;;;;;;;;;;;;;;;20.80;51.99;103059.56;2083248;28;1235;-73
2021/03/02 03:20:34;;;;;;;;;;;;;;;20.80;52.07;103068.09;2091094;28;1745;-74
2021/03/02 03:21:35;;;;;;;;;;;;;;;20.80;51.89;103056.72;2090204;28;1633;-74
2021/03/02 03:22:35;;;;;;;;;;;;;;;20.81;51.99;103054.72;2089622;28;1728;-74
2021/03/02 03:23:36;;;;;;;;;;;;;;;20.80;51.92;103062.41;2088572;28;2149;-74
2021/03/02 03:24:37;;;;;;;;;;;;;;;20.80;51.88;103065.25;2090316;28;1873;-73
2021/03/02 03:25:38;;;;;;;;;;;;;;;20.79;51.94;103055.03;2089725;28;1391;-72
2021/03/02 03:26:39;;;;;;;;;;;;;;;20.77;51.92;103063.00;2087624;28;1763;-74
2021/03/02 03:27:39;;;;;;;;;;;;;;;20.80;52.01;103059.56;2086310;28;1214;-74
2021/03/02 03:28:40;;;;;;;;;;;;;;;20.81;52.03;103063.25;2085612;28;1738;-74
2021/03/02 03:29:41;;;;;;;;;;;;;;;20.81;52.05;103060.41;2089918;28;2268;-74
2021/03/02 03:30:41;;;;;;;;;;;;;;;20.80;51.88;103065.25;2090046;28;1188;-74
2021/03/02 03:31:43;;;;;;;;;;;;;;;20.80;51.97;103068.09;2088545;28;1765;-73
2021/03/02 03:32:44;;;;;;;;;;;;;;;20.80;51.85;103065.25;2089876;28;2211;-73
2021/03/02 03:33:45;;;;;;;;;;;;;;;20.80;51.91;103067.25;2089699;28;1647;-73
2021/03/02 03:34:46;;;;;;;;;;;;;;;20.80;51.86;103072.94;2087550;28;1991;-74
2021/03/02 03:35:47;;;;;;;;;;;;;;;20.80;51.84;103067.25;2090057;28;2179;-74
2021/03/02 03:36:47;;;;;;;;;;;;;;;20.79;51.85;103072.09;2083502;28;1068;-74
2021/03/02 03:37:48;;;;;;;;;;;;;;;20.80;51.84;103078.63;2089310;28;1740;-74
2021/03/02 03:38:49;;;;;;;;;;;;;;;20.79;51.83;103072.09;2089934;28;1718;-75
2021/03/02 03:39:50;;;;;;;;;;;;;;;20.80;51.97;103073.78;2088573;28;1768;-75
2021/03/02 03:40:51;;;;;;;;;;;;;;;20.80;51.90;103073.78;2083912;28;1154;-75
2021/03/02 03:41:51;;;;;;;;;;;;;;;20.80;51.90;103073.78;2090743;28;1087;-75
2021/03/02 03:42:52;;;;;;;;;;;;;;;20.79;51.79;103074.94;2087321;28;1609;-75
2021/03/02 03:43:53;;;;;;;;;;;;;;;20.80;51.79;103078.63;2084400;28;1918;-75
2021/03/02 03:44:53;;;;;;;;;;;;;;;20.82;51.99;103077.19;2089674;28;1360;-82
2021/03/02 03:45:54;;;;;;;;;;;;;;;20.81;51.86;103071.78;2089823;28;1787;-73
2021/03/02 03:46:55;;;;;;;;;;;;;;;20.81;51.87;103072.63;2083739;28;1104;-73
2021/03/02 03:47:56;;;;;;;;;;;;;;;20.81;51.98;103068.94;2089529;28;1591;-76
2021/03/02 03:48:57;;;;;;;;;;;;;;;20.81;51.96;103063.25;2086204;28;1707;-76
2021/03/02 03:49:58;;;;;;;;;;;;;;;20.81;51.79;103068.94;2084077;28;1163;-76
2021/03/02 03:50:58;;;;;;;;;;;;;;;20.80;51.88;103061.56;2088191;28;1110;-76
2021/03/02 03:51:59;;;;;;;;;;;;;;;20.79;51.87;103069.25;2090710;28;1708;-76
2021/03/02 03:53:00;;;;;;;;;;;;;;;20.80;51.96;103067.25;2086946;28;1110;-76
2021/03/02 03:54:01;;;;;;;;;;;;;;;20.80;51.87;103067.25;2090307;28;1758;-76
2021/03/02 03:55:01;;;;;;;;;;;;;;;20.80;51.86;103067.25;2089575;28;1851;-76
2021/03/02 03:56:02;;;;;;;;;;;;;;;20.79;51.92;103069.25;2088620;28;1760;-76
2021/03/02 03:57:03;;;;;;;;;;;;;;;20.80;51.82;103068.09;2090391;28;997;-76
2021/03/02 03:58:04;;;;;;;;;;;;;;;20.80;51.82;103062.41;2090566;28;1254;-76
2021/03/02 03:59:04;;;;;;;;;;;;;;;20.80;51.71;103067.25;2089721;28;1677;-76
2021/03/02 04:00:05;;;;;;;;;;;;;;;20.80;51.64;103061.56;2082453;28;1096;-76
2021/03/02 04:01:06;;;;;;;;;;;;;;;20.80;51.78;103072.94;2090052;28;1103;-76
2021/03/02 04:02:08;;;;;;;;;;;;;;;20.80;51.82;103070.09;2089750;28;1044;-76
2021/03/02 04:03:10;;;;;;;;;;;;;;;20.79;51.69;103057.88;2090265;28;1724;-76
2021/03/02 04:04:11;;;;;;;;;;;;;;;20.79;51.72;103066.41;2087834;28;1973;-76
2021/03/02 04:05:12;;;;;;;;;;;;;;;20.80;51.79;103068.09;2089684;28;1828;-76
2021/03/02 04:06:13;;;;;;;;;;;;;;;20.79;51.62;103057.88;2090568;28;984;-76
2021/03/02 04:07:14;;;;;;;;;;;;;;;20.79;51.77;103066.41;2086176;28;1721;-78
2021/03/02 04:08:15;;;;;;;;;;;;;;;20.79;51.65;103068.41;2088368;28;1818;-76
2021/03/02 04:09:15;;;;;;;;;;;;;;;20.79;51.64;103054.19;2089613;28;1729;-78
2021/03/02 04:10:16;;;;;;;;;;;;;;;20.80;51.81;103068.09;2085454;28;1943;-77
2021/03/02 04:11:17;;;;;;;;;;;;;;;20.80;51.63;103062.41;2084118;28;1123;-77
2021/03/02 04:12:18;;;;;;;;;;;;;;;20.80;51.56;103059.56;2087605;28;1685;-78
2021/03/02 04:13:19;;;;;;;;;;;;;;;20.80;51.69;103067.25;2087925;28;1470;-78
2021/03/02 04:14:19;;;;;;;;;;;;;;;20.79;51.85;103066.41;2089250;28;1688;-78
2021/03/02 04:15:20;;;;;;;;;;;;;;;20.80;51.74;103055.88;2089137;28;1704;-77
2021/03/02 04:16:21;;;;;;;;;;;;;;;20.80;51.59;103067.25;2089781;28;1138;-77
2021/03/02 04:17:22;;;;;;;;;;;;;;;20.80;51.54;103059.56;2076592;28;2987;-77
2021/03/02 04:18:23;;;;;;;;;;;;;;;20.81;51.78;103074.63;2080040;28;1739;-77
2021/03/02 04:19:24;;;;;;;;;;;;;;;20.80;51.51;103064.41;2086299;28;1754;-77
2021/03/02 04:20:24;;;;;;;;;;;;;;;20.79;51.69;103066.41;2087781;28;1163;-77
2021/03/02 04:21:25;;;;;;;;;;;;;;;20.80;51.60;103059.56;2089374;28;1099;-76
2021/03/02 04:22:26;;;;;;;;;;;;;;;20.79;51.74;103057.88;2089648;28;1669;-76
2021/03/02 04:23:27;;;;;;;;;;;;;;;20.79;51.58;103055.03;2087915;28;1914;-76
2021/03/02 04:24:27;;;;;;;;;;;;;;;20.79;51.56;103057.88;2088790;28;1568;-76
2021/03/02 04:25:28;;;;;;;;;;;;;;;20.80;51.62;103059.56;2088507;28;1098;-76
2021/03/02 04:26:29;;;;;;;;;;;;;;;20.79;51.63;103055.03;2084796;28;1702;-76
2021/03/02 04:27:30;;;;;;;;;;;;;;;20.80;51.64;103067.25;2086219;28;1704;-76
2021/03/02 04:28:30;;;;;;;;;;;;;;;20.80;51.49;103067.25;2090228;28;1063;-77
2021/03/02 04:29:31;;;;;;;;;;;;;;;20.79;51.66;103065.56;2088100;28;1754;-77
2021/03/02 04:30:32;;;;;;;;;;;;;;;20.80;51.56;103068.09;2085197;28;2555;-77
2021/03/02 04:31:33;;;;;;;;;;;;;;;20.79;51.56;103065.56;2088599;28;1779;-76
2021/03/02 04:32:34;;;;;;;;;;;;;;;20.79;51.60;103060.72;2087948;28;1076;-76
2021/03/02 04:33:35;;;;;;;;;;;;;;;20.79;51.47;103062.72;2087560;28;1659;-75
2021/03/02 04:34:36;;;;;;;;;;;;;;;20.79;51.55;103062.72;2089038;28;2000;-76
2021/03/02 04:35:37;;;;;;;;;;;;;;;20.79;51.64;103060.72;2086280;28;1023;-76
2021/03/02 04:36:38;;;;;;;;;;;;;;;20.79;51.44;103055.03;2089642;28;1766;-76
2021/03/02 04:37:39;;;;;;;;;;;;;;;20.79;51.56;103055.03;2088302;28;1835;-76
2021/03/02 04:38:39;;;;;;;;;;;;;;;20.79;51.44;103068.41;2088769;28;1718;-76
2021/03/02 04:39:40;;;;;;;;;;;;;;;20.80;51.56;103067.25;2086192;28;1080;-76
2021/03/02 04:40:41;;;;;;;;;;;;;;;20.79;51.43;103059.88;2084123;28;1069;-76
2021/03/02 04:41:42;;;;;;;;;;;;;;;20.79;51.54;103071.25;2087892;28;1759;-76
2021/03/02 04:42:44;;;;;;;;;;;;;;;20.79;51.46;103065.56;2089988;28;1651;-76
2021/03/02 04:43:44;;;;;;;;;;;;;;;20.79;51.52;103066.41;2089891;28;1973;-76
2021/03/02 04:44:45;;;;;;;;;;;;;;;20.79;51.59;103066.41;2086418;28;1702;-76
2021/03/02 04:45:46;;;;;;;;;;;;;;;20.79;51.50;103069.25;2089643;28;1685;-76
2021/03/02 04:46:47;;;;;;;;;;;;;;;20.78;51.53;103070.38;2090429;28;1027;-77
2021/03/02 04:47:48;;;;;;;;;;;;;;;20.79;51.41;103066.41;2089341;28;1677;-76
2021/03/02 04:48:49;;;;;;;;;;;;;;;20.79;51.49;103069.25;2089867;28;1795;-76
2021/03/02 04:49:50;;;;;;;;;;;;;;;20.80;51.52;103070.09;2086952;28;1064;-76
2021/03/02 04:50:50;;;;;;;;;;;;;;;20.79;51.39;103069.25;2088536;28;1527;-75
2021/03/02 04:51:51;;;;;;;;;;;;;;;20.79;51.55;103069.25;2090199;28;1135;-75
2021/03/02 04:52:52;;;;;;;;;;;;;;;20.80;51.53;103067.25;2085782;28;1724;-75
2021/03/02 04:53:53;;;;;;;;;;;;;;;20.78;51.38;103070.38;2086861;28;1684;-75
2021/03/02 04:54:53;;;;;;;;;;;;;;;20.79;51.50;103069.25;2089566;28;1711;-75
2021/03/02 04:55:54;;;;;;;;;;;;;;;20.79;51.29;103069.25;2089764;28;1460;-75
2021/03/02 04:56:55;;;;;;;;;;;;;;;20.80;51.45;103067.25;2089745;28;1160;-75
2021/03/02 04:57:55;;;;;;;;;;;;;;;20.79;51.37;103060.72;2089842;28;1814;-75
2021/03/02 04:58:56;;;;;;;;;;;;;;;20.80;51.33;103067.25;2089453;28;1772;-75
2021/03/02 04:59:57;;;;;;;;;;;;;;;20.79;51.36;103057.88;2086171;28;1211;-75
2021/03/02 05:00:58;;;;;;;;;;;;;;;20.79;51.47;103069.25;2085802;28;1628;-75
2021/03/02 05:01:58;;;;;;;;;;;;;;;20.80;51.43;103070.94;2090029;28;1215;-75
2021/03/02 05:02:59;;;;;;;;;;;;;;;20.79;51.20;103066.41;2086256;28;1109;-74
2021/03/02 05:04:00;;;;;;;;;;;;;;;20.79;51.42;103059.88;2088979;28;2113;-75
2021/03/02 05:05:01;;;;;;;;;;;;;;;20.79;51.32;103065.56;2089694;28;1685;-75
2021/03/02 05:06:02;;;;;;;;;;;;;;;20.79;51.29;103059.88;2089560;28;1083;-75
2021/03/02 05:07:03;;;;;;;;;;;;;;;20.79;51.33;103055.03;2085828;28;1748;-75
2021/03/02 05:08:03;;;;;;;;;;;;;;;20.80;51.31;103058.72;2087317;28;1840;-75
2021/03/02 05:09:04;;;;;;;;;;;;;;;20.79;51.28;103057.88;2088585;28;1792;-75
2021/03/02 05:10:05;;;;;;;;;;;;;;;20.80;51.23;103070.09;2089924;28;2322;-74
2021/03/02 05:11:06;;;;;;;;;;;;;;;20.79;51.34;103057.88;2090160;28;1125;-75
2021/03/02 05:12:07;;;;;;;;;;;;;;;20.80;51.28;103058.72;2088884;28;1692;-75
2021/03/02 05:13:08;;;;;;;;;;;;;;;20.80;51.35;103059.56;2090125;28;1073;-75
2021/03/02 05:14:09;;;;;;;;;;;;;;;20.80;51.24;103055.88;2089553;28;1734;-74
2021/03/02 05:15:09;;;;;;;;;;;;;;;20.80;51.35;103059.56;2087252;28;1696;-75
2021/03/02 05:16:10;;;;;;;;;;;;;;;20.79;51.22;103057.03;2085894;28;2030;-75
2021/03/02 05:17:12;;;;;;;;;;;;;;;20.79;51.20;103055.03;2085902;28;1562;-74